Observation data for Turkey on 01/19/2019      Previous  Date  Next       Current Mesonet Observations  Soil Data  Daily Summary Page  Observations in Plain Language
KTUR 190600Z 32022G28KT 01/M02 A30 RMK A01 T00141023  RH  078%=      5-min Rain = 0
KTUR 190605Z 32025G33KT 01/M02 A3001 RMK A01 T00141024  RH  076%=      5-min Rain = 0
KTUR 190610Z 32027G35KT 02/M03 A3001 RMK A01 T00151026  RH  075%=      5-min Rain = 0
KTUR 190615Z 32023G31KT 02/M03 A3001 RMK A01 T00151026  RH  075%=      5-min Rain = 0
KTUR 190620Z 32022G30KT 02/M02 A3002 RMK A01 T00151024  RH  076%=      5-min Rain = 0
KTUR 190625Z 32024G32KT 02/M03 A3003 RMK A01 T00151025  RH  076%=      5-min Rain = 0
KTUR 190630Z 32019G27KT 01/M02 A3003 RMK A01 T00141024  RH  077%=      5-min Rain = 0
KTUR 190635Z 32022G27KT 02/M02 A3004 RMK A01 T00161024  RH  076%=      5-min Rain = 0
KTUR 190640Z 32021G28KT 02/M02 A3004 RMK A01 T00161024  RH  076%=      5-min Rain = 0
KTUR 190645Z 32021G30KT 02/M02 A3004 RMK A01 T00171023  RH  076%=      5-min Rain = 0
KTUR 190650Z 32022G29KT 02/M02 A3004 RMK A01 T00171023  RH  076%=      5-min Rain = 0
KTUR 190655Z 32024G32KT 02/M02 A3004 RMK A01 T00171023  RH  076%=      5-min Rain = 0
KTUR 190700Z 32023G29KT 02/M02 A3005 RMK A01 T00171022  RH  076%=      5-min Rain = 0
KTUR 190705Z 32017G29KT 02/M02 A3005 RMK A01 T00171021  RH  077%=      5-min Rain = 0
KTUR 190710Z 32024G34KT 02/M02 A3005 RMK A01 T00181022  RH  075%=      5-min Rain = 0
KTUR 190715Z 32020G27KT 02/M02 A3005 RMK A01 T00181022  RH  075%=      5-min Rain = 0
KTUR 190720Z 32022G31KT 02/M02 A3005 RMK A01 T00181023  RH  075%=      5-min Rain = 0
KTUR 190725Z 32020G26KT 02/M02 A3005 RMK A01 T00191022  RH  075%=      5-min Rain = 0
KTUR 190730Z 32017G22KT 02/M02 A3005 RMK A01 T00181021  RH  076%=      5-min Rain = 0
KTUR 190735Z 32020G29KT 02/M02 A3005 RMK A01 T00191021  RH  076%=      5-min Rain = 0
KTUR 190740Z 32023G32KT 02/M02 A3005 RMK A01 T00191021  RH  076%=      5-min Rain = 0
KTUR 190745Z 32020G29KT 02/M02 A3005 RMK A01 T00201020  RH  076%=      5-min Rain = 0
KTUR 190750Z 32020G26KT 02/M02 A3005 RMK A01 T00201019  RH  076%=      5-min Rain = 0
KTUR 190755Z 32019G26KT 02/M02 A3005 RMK A01 T00201018  RH  077%=      5-min Rain = 0
KTUR 190800Z 32018G24KT 02/M02 A3006 RMK A01 T00201017  RH  077%=      5-min Rain = 0
KTUR 190805Z 31017KT 02/M02 A3006 RMK A01 T00201017  RH  077%=      5-min Rain = 0
KTUR 190810Z 31015G20KT 02/M02 A3006 RMK A01 T00211017  RH  077%=      5-min Rain = 0
KTUR 190815Z 31020G32KT 02/M02 A3007 RMK A01 T00221019  RH  075%=      5-min Rain = 0
KTUR 190820Z 31028G38KT 02/M03 A3006 RMK A01 T00211027  RH  071%=      5-min Rain = 0
KTUR 190825Z 32027G37KT 02/M03 A3006 RMK A01 T00201030  RH  070%=      5-min Rain = 0
KTUR 190830Z 32022G32KT 02/M03 A3007 RMK A01 T00191029  RH  071%=      5-min Rain = 0
KTUR 190835Z 31025G34KT 02/M03 A3007 RMK A01 T00181033  RH  070%=      5-min Rain = 0
KTUR 190840Z 32027G34KT 02/M04 A3007 RMK A01 T00151036  RH  070%=      5-min Rain = 0
KTUR 190845Z 32024G32KT 02/M04 A3007 RMK A01 T00151036  RH  070%=      5-min Rain = 0
KTUR 190850Z 32026G34KT 01/M04 A3007 RMK A01 T00141038  RH  069%=      5-min Rain = 0
KTUR 190855Z 32024G34KT 01/M04 A3008 RMK A01 T00121040  RH  069%=      5-min Rain = 0
KTUR 190900Z 32025G34KT 01/M04 A3008 RMK A01 T00111042  RH  069%=      5-min Rain = 0
KTUR 190905Z 32025G31KT 01/M04 A3008 RMK A01 T00101042  RH  069%=      5-min Rain = 0
KTUR 190910Z 32024G33KT 01/M04 A3009 RMK A01 T00101042  RH  069%=      5-min Rain = 0
KTUR 190915Z 32026G37KT 01/M04 A3009 RMK A01 T00081044  RH  069%=      5-min Rain = 0
KTUR 190920Z 32028G36KT 01/M05 A3009 RMK A01 T00071045  RH  069%=      5-min Rain = 0
KTUR 190925Z 32025G33KT 01/M05 A3009 RMK A01 T00071045  RH  069%=      5-min Rain = 0
KTUR 190930Z 31024G31KT 01/M05 A301 RMK A01 T00061046  RH  069%=      5-min Rain = 0
KTUR 190935Z 32026G32KT 01/M05 A301 RMK A01 T00051047  RH  069%=      5-min Rain = 0
KTUR 190940Z 31022G30KT 00/M05 A301 RMK A01 T00041047  RH  069%=      5-min Rain = 0
KTUR 190945Z 31023G36KT 00/M05 A3011 RMK A01 T00031048  RH  069%=      5-min Rain = 0
KTUR 190950Z 31027G35KT 00/05 A3011 RMK A01 T00000-52  RH  068%=      5-min Rain = 0
KTUR 190955Z 31023G30KT M00/M05 A3011 RMK A01 T10011053  RH  069%=      5-min Rain = 0
KTUR 191000Z 31022G29KT M00/M05 A3011 RMK A01 T10021054  RH  069%=      5-min Rain = 0
KTUR 191005Z 31022G32KT M00/M06 A3011 RMK A01 T10031055  RH  069%=      5-min Rain = 0
KTUR 191010Z 31023G29KT M00/M06 A3012 RMK A01 T10041056  RH  069%=      5-min Rain = 0
KTUR 191015Z 31023G29KT M01/M06 A3012 RMK A01 T10051056  RH  069%=      5-min Rain = 0
KTUR 191020Z 31024G32KT M01/M06 A3012 RMK A01 T10061057  RH  069%=      5-min Rain = 0
KTUR 191025Z 31023G32KT M01/M06 A3013 RMK A01 T10061058  RH  069%=      5-min Rain = 0
KTUR 191030Z 31022G29KT M01/M06 A3013 RMK A01 T10061058  RH  069%=      5-min Rain = 0
KTUR 191035Z 31022G29KT M01/M06 A3014 RMK A01 T10071059  RH  069%=      5-min Rain = 0
KTUR 191040Z 32022G27KT M01/M06 A3014 RMK A01 T10081059  RH  069%=      5-min Rain = 0
KTUR 191045Z 32021G28KT M01/M06 A3013 RMK A01 T10081059  RH  069%=      5-min Rain = 0
KTUR 191050Z 32021G29KT M01/M06 A3014 RMK A01 T10081058  RH  069%=      5-min Rain = 0
KTUR 191055Z 32022G27KT M01/M06 A3014 RMK A01 T10071058  RH  070%=      5-min Rain = 0
KTUR 191100Z 32019G24KT M01/M06 A3015 RMK A01 T10071057  RH  070%=      5-min Rain = 0
KTUR 191105Z 32021G26KT M01/M06 A3015 RMK A01 T10071057  RH  069%=      5-min Rain = 0
KTUR 191110Z 32020G28KT M01/M06 A3015 RMK A01 T10071058  RH  069%=      5-min Rain = 0
KTUR 191115Z 32019G25KT M01/M06 A3015 RMK A01 T10061057  RH  069%=      5-min Rain = 0
KTUR 191120Z 32016G22KT M01/M06 A3015 RMK A01 T10071056  RH  070%=      5-min Rain = 0
KTUR 191125Z 32015KT M01/M06 A3015 RMK A01 T10081056  RH  071%=      5-min Rain = 0
KTUR 191130Z 32014G20KT M01/M06 A3015 RMK A01 T10081055  RH  071%=      5-min Rain = 0
KTUR 191135Z 31015G20KT M01/M06 A3015 RMK A01 T10081055  RH  071%=      5-min Rain = 0
KTUR 191140Z 31012G17KT M01/M05 A3016 RMK A01 T10081054  RH  072%=      5-min Rain = 0
KTUR 191145Z 31010KT M01/M05 A3016 RMK A01 T10091054  RH  072%=      5-min Rain = 0
KTUR 191150Z 31009KT M01/M05 A3017 RMK A01 T10101053  RH  073%=      5-min Rain = 0
KTUR 191155Z 30011G16KT M01/M05 A3017 RMK A01 T10091052  RH  073%=      5-min Rain = 0
KTUR 191200Z 30010G17KT M01/M05 A3017 RMK A01 T10091052  RH  074%=      5-min Rain = 0
KTUR 191205Z 31011G19KT M01/M05 A3017 RMK A01 T10081051  RH  074%=      5-min Rain = 0
KTUR 191210Z 31015G22KT M01/M05 A3018 RMK A01 T10061050  RH  073%=      5-min Rain = 0
KTUR 191215Z 31016G22KT M01/M05 A3018 RMK A01 T10061050  RH  073%=      5-min Rain = 0
KTUR 191220Z 31015G20KT M01/M05 A3018 RMK A01 T10051050  RH  072%=      5-min Rain = 0
KTUR 191225Z 31018G23KT M01/M05 A3018 RMK A01 T10051050  RH  072%=      5-min Rain = 0
KTUR 191230Z 31018G24KT M00/M05 A3018 RMK A01 T10041050  RH  072%=      5-min Rain = 0
KTUR 191235Z 31018KT M01/M05 A3018 RMK A01 T10051050  RH  072%=      5-min Rain = 0
KTUR 191240Z 31016G21KT M01/M05 A3018 RMK A01 T10061050  RH  073%=      5-min Rain = 0
KTUR 191245Z 31014G19KT M01/M05 A3019 RMK A01 T10071050  RH  073%=      5-min Rain = 0
KTUR 191250Z 30011KT M01/M05 A3019 RMK A01 T10081050  RH  074%=      5-min Rain = 0
KTUR 191255Z 30016G21KT M01/M05 A3019 RMK A01 T10081050  RH  074%=      5-min Rain = 0
KTUR 191300Z 31015G22KT M01/M05 A302 RMK A01 T10091050  RH  074%=      5-min Rain = 0
KTUR 191305Z 31013KT M01/M05 A3021 RMK A01 T10091050  RH  075%=      5-min Rain = 0
KTUR 191310Z 31013G18KT M01/M05 A3021 RMK A01 T10101050  RH  075%=      5-min Rain = 0
KTUR 191315Z 32012KT M01/M05 A3021 RMK A01 T10111050  RH  075%=      5-min Rain = 0
KTUR 191320Z 32011KT M01/M05 A3022 RMK A01 T10111050  RH  076%=      5-min Rain = 0
KTUR 191325Z 32011G16KT M01/M05 A3022 RMK A01 T10111050  RH  076%=      5-min Rain = 0
KTUR 191330Z 32009G15KT M01/M05 A3023 RMK A01 T10121050  RH  076%=      5-min Rain = 0
KTUR 191335Z 31009KT M01/M05 A3023 RMK A01 T10131050  RH  076%=      5-min Rain = 0
KTUR 191340Z 31008G14KT M01/M05 A3023 RMK A01 T10131050  RH  076%=      5-min Rain = 0
KTUR 191345Z 31008KT M01/M05 A3023 RMK A01 T10141051  RH  077%=      5-min Rain = 0
KTUR 191350Z 31007KT M02/M05 A3023 RMK A01 T10151051  RH  077%=      5-min Rain = 0
KTUR 191355Z 31010KT M01/M05 A3024 RMK A01 T10141050  RH  077%=      5-min Rain = 0
KTUR 191400Z 31010KT M01/M05 A3024 RMK A01 T10131050  RH  077%=      5-min Rain = 0
KTUR 191405Z 31010KT M01/M05 A3024 RMK A01 T10131049  RH  077%=      5-min Rain = 0
KTUR 191410Z 31009KT M01/M05 A3024 RMK A01 T10121049  RH  077%=      5-min Rain = 0
KTUR 191415Z 31010KT M01/M05 A3025 RMK A01 T10121049  RH  077%=      5-min Rain = 0
KTUR 191420Z 31011KT M01/M05 A3025 RMK A01 T10091048  RH  076%=      5-min Rain = 0
KTUR 191425Z 32011G16KT M01/M05 A3025 RMK A01 T10081047  RH  075%=      5-min Rain = 0
KTUR 191430Z 32014G21KT M01/M05 A3025 RMK A01 T10061047  RH  074%=      5-min Rain = 0
KTUR 191435Z 31015G22KT M00/M05 A3026 RMK A01 T10031047  RH  073%=      5-min Rain = 0
KTUR 191440Z 32016G23KT M00/M05 A3026 RMK A01 T10021047  RH  072%=      5-min Rain = 0
KTUR 191445Z 32018G24KT M00/M05 A3026 RMK A01 T10011047  RH  072%=      5-min Rain = 0
KTUR 191450Z 31018KT 00/M05 A3027 RMK A01 T00011048  RH  071%=      5-min Rain = 0
KTUR 191455Z 31018G25KT 00/M05 A3027 RMK A01 T00021047  RH  070%=      5-min Rain = 0
KTUR 191500Z 31015G21KT 00/M05 A3028 RMK A01 T00041046  RH  070%=      5-min Rain = 0
KTUR 191505Z 31014G22KT 01/M05 A3028 RMK A01 T00051046  RH  069%=      5-min Rain = 0
KTUR 191510Z 31018G26KT 01/M05 A3028 RMK A01 T00071046  RH  069%=      5-min Rain = 0
KTUR 191515Z 31017G23KT 01/M05 A3028 RMK A01 T00071046  RH  068%=      5-min Rain = 0
KTUR 191520Z 31020G28KT 01/M05 A3028 RMK A01 T00081047  RH  068%=      5-min Rain = 0
KTUR 191525Z 32020G25KT 01/M05 A3028 RMK A01 T00091046  RH  067%=      5-min Rain = 0
KTUR 191530Z 32019G26KT 01/M05 A3028 RMK A01 T00121045  RH  067%=      5-min Rain = 0
KTUR 191535Z 32018G25KT 01/M04 A3029 RMK A01 T00141044  RH  066%=      5-min Rain = 0
KTUR 191540Z 32021G26KT 02/M05 A3029 RMK A01 T00151045  RH  065%=      5-min Rain = 0
KTUR 191545Z 32018G23KT 02/M05 A303 RMK A01 T00151045  RH  065%=      5-min Rain = 0
KTUR 191550Z 32021KT 02/M05 A303 RMK A01 T00151045  RH  065%=      5-min Rain = 0
KTUR 191555Z 31019G24KT 01/M05 A303 RMK A01 T00131046  RH  066%=      5-min Rain = 0
KTUR 191600Z 31018G26KT 02/M04 A303 RMK A01 T00151043  RH  066%=      5-min Rain = 0
KTUR 191605Z 32021G28KT 02/M05 A303 RMK A01 T00171045  RH  064%=      5-min Rain = 0
KTUR 191610Z 32023G29KT 02/M05 A303 RMK A01 T00191046  RH  063%=      5-min Rain = 0
KTUR 191615Z 32022KT 02/M05 A303 RMK A01 T00181045  RH  063%=      5-min Rain = 0
KTUR 191620Z 32017G25KT 02/M04 A3031 RMK A01 T00201044  RH  063%=      5-min Rain = 0
KTUR 191625Z 32020G25KT 02/M04 A3031 RMK A01 T00241042  RH  062%=      5-min Rain = 0
KTUR 191630Z 32018G24KT 03/M04 A3031 RMK A01 T00261041  RH  062%=      5-min Rain = 0
KTUR 191635Z 31022G27KT 02/M04 A3031 RMK A01 T00231044  RH  061%=      5-min Rain = 0
KTUR 191640Z 32020G29KT 02/M05 A3031 RMK A01 T00211045  RH  062%=      5-min Rain = 0
KTUR 191645Z 33020G25KT 03/M05 A3031 RMK A01 T00261045  RH  060%=      5-min Rain = 0
KTUR 191650Z 32018G26KT 03/M04 A3031 RMK A01 T00291044  RH  059%=      5-min Rain = 0
KTUR 191655Z 32019G25KT 03/M05 A3031 RMK A01 T00271046  RH  059%=      5-min Rain = 0
KTUR 191700Z 33020G26KT 03/M05 A3032 RMK A01 T00251046  RH  060%=      5-min Rain = 0
KTUR 191705Z 32018G25KT 03/M05 A3032 RMK A01 T00261046  RH  060%=      5-min Rain = 0
KTUR 191710Z 32020G28KT 03/M05 A3032 RMK A01 T00281045  RH  059%=      5-min Rain = 0
KTUR 191715Z 33022G29KT 03/M05 A3032 RMK A01 T00301045  RH  058%=      5-min Rain = 0
KTUR 191720Z 33022G28KT 03/M05 A3032 RMK A01 T00311045  RH  058%=      5-min Rain = 0
KTUR 191725Z 32021G26KT 03/M04 A3032 RMK A01 T00341044  RH  057%=      5-min Rain = 0
KTUR 191730Z 32021G29KT 04/M04 A3032 RMK A01 T00361044  RH  056%=      5-min Rain = 0
KTUR 191735Z 32023G30KT 04/M05 A3031 RMK A01 T00351045  RH  057%=      5-min Rain = 0
KTUR 191740Z 32022G27KT 04/M04 A3031 RMK A01 T00361044  RH  056%=      5-min Rain = 0
KTUR 191745Z 32023G30KT 04/M04 A3031 RMK A01 T00361044  RH  056%=      5-min Rain = 0
KTUR 191750Z 31020G28KT 04/M04 A3031 RMK A01 T00371044  RH  056%=      5-min Rain = 0
KTUR 191755Z 31021G31KT 04/M04 A3031 RMK A01 T00391043  RH  056%=      5-min Rain = 0
KTUR 191800Z 32023G30KT 04/M04 A3031 RMK A01 T00391044  RH  056%=      5-min Rain = 0
KTUR 191805Z 32024G31KT 04/M04 A3031 RMK A01 T00401043  RH  055%=      5-min Rain = 0
KTUR 191810Z 32021G28KT 04/M04 A303 RMK A01 T00411042  RH  055%=      5-min Rain = 0
KTUR 191815Z 32022G30KT 04/M04 A303 RMK A01 T00411042  RH  055%=      5-min Rain = 0
KTUR 191820Z 32021G29KT 04/M04 A303 RMK A01 T00411043  RH  055%=      5-min Rain = 0
KTUR 191825Z 33017G23KT 04/M04 A303 RMK A01 T00421043  RH  054%=      5-min Rain = 0
KTUR 191830Z 31017G22KT 05/M04 A303 RMK A01 T00461041  RH  054%=      5-min Rain = 0
KTUR 191835Z 31019G25KT 05/M04 A303 RMK A01 T00471041  RH  053%=      5-min Rain = 0
KTUR 191840Z 32019G27KT 05/M04 A303 RMK A01 T00521040  RH  052%=      5-min Rain = 0
KTUR 191845Z 31019G28KT 05/M04 A303 RMK A01 T00501041  RH  052%=      5-min Rain = 0
KTUR 191850Z 31020G26KT 05/M04 A303 RMK A01 T00491041  RH  053%=      5-min Rain = 0
KTUR 191855Z 32019G28KT 05/M04 A3029 RMK A01 T00491041  RH  053%=      5-min Rain = 0
KTUR 191900Z 32018G24KT 05/M04 A3029 RMK A01 T00501040  RH  053%=      5-min Rain = 0
KTUR 191905Z 32020G27KT 05/M04 A3029 RMK A01 T00511041  RH  052%=      5-min Rain = 0
KTUR 191910Z 32019G25KT 05/M04 A3029 RMK A01 T00541039  RH  052%=      5-min Rain = 0
KTUR 191915Z 32020G25KT 05/M04 A3029 RMK A01 T00541040  RH  051%=      5-min Rain = 0
KTUR 191920Z 33018G25KT 06/M04 A3028 RMK A01 T00581038  RH  050%=      5-min Rain = 0
KTUR 191925Z 32017G23KT 06/M04 A3028 RMK A01 T00581039  RH  050%=      5-min Rain = 0
KTUR 191930Z 32019G28KT 06/M04 A3028 RMK A01 T00601039  RH  049%=      5-min Rain = 0
KTUR 191935Z 33018G24KT 06/M04 A3027 RMK A01 T00591039  RH  050%=      5-min Rain = 0
KTUR 191940Z 32018G25KT 06/M04 A3027 RMK A01 T00601039  RH  049%=      5-min Rain = 0
KTUR 191945Z 32018G23KT 06/M04 A3026 RMK A01 T00631038  RH  049%=      5-min Rain = 0
KTUR 191950Z 31017G23KT 06/M04 A3026 RMK A01 T00621039  RH  049%=      5-min Rain = 0
KTUR 191955Z 32014KT 06/M04 A3026 RMK A01 T00641037  RH  049%=      5-min Rain = 0
KTUR 192000Z 32015G21KT 07/M04 A3026 RMK A01 T00661038  RH  048%=      5-min Rain = 0
KTUR 192005Z 32018G25KT 06/M04 A3026 RMK A01 T00641038  RH  049%=      5-min Rain = 0
KTUR 192010Z 32019G25KT 06/M04 A3026 RMK A01 T00611040  RH  049%=      5-min Rain = 0
KTUR 192015Z 31018G24KT 07/M04 A3026 RMK A01 T00651038  RH  048%=      5-min Rain = 0
KTUR 192020Z 32017G23KT 07/M04 A3026 RMK A01 T00671038  RH  048%=      5-min Rain = 0
KTUR 192025Z 31014G19KT 07/M04 A3026 RMK A01 T00711036  RH  047%=      5-min Rain = 0
KTUR 192030Z 32015KT 07/M04 A3026 RMK A01 T00681037  RH  047%=      5-min Rain = 0
KTUR 192035Z 32015G22KT 07/M04 A3025 RMK A01 T00701036  RH  047%=      5-min Rain = 0
KTUR 192040Z 31015G21KT 07/M04 A3025 RMK A01 T00711037  RH  047%=      5-min Rain = 0
KTUR 192045Z 31017G22KT 07/M04 A3025 RMK A01 T00711038  RH  046%=      5-min Rain = 0
KTUR 192050Z 31015KT 07/M04 A3026 RMK A01 T00711037  RH  047%=      5-min Rain = 0
KTUR 192055Z 33017G22KT 07/M04 A3025 RMK A01 T00741037  RH  046%=      5-min Rain = 0
KTUR 192100Z 32015G22KT 08/M04 A3025 RMK A01 T00751036  RH  046%=      5-min Rain = 0
KTUR 192105Z 31015G22KT 08/M04 A3026 RMK A01 T00781036  RH  045%=      5-min Rain = 0
KTUR 192110Z 31015G21KT 08/M04 A3026 RMK A01 T00771037  RH  045%=      5-min Rain = 0
KTUR 192115Z 31016G21KT 08/M04 A3026 RMK A01 T00771036  RH  045%=      5-min Rain = 0
KTUR 192120Z 32016G21KT 08/M04 A3026 RMK A01 T00791035  RH  045%=      5-min Rain = 0
KTUR 192125Z 32017KT 08/M04 A3026 RMK A01 T00781037  RH  045%=      5-min Rain = 0
KTUR 192130Z 32016KT 08/M04 A3026 RMK A01 T00801036  RH  044%=      5-min Rain = 0
KTUR 192135Z 32014G19KT 08/M04 A3026 RMK A01 T00801035  RH  045%=      5-min Rain = 0
KTUR 192140Z 32014G20KT 08/M04 A3026 RMK A01 T00801035  RH  044%=      5-min Rain = 0
KTUR 192145Z 33013KT 08/M04 A3026 RMK A01 T00801035  RH  045%=      5-min Rain = 0
KTUR 192150Z 32014KT 08/M03 A3026 RMK A01 T00821034  RH  044%=      5-min Rain = 0
KTUR 192155Z 33013KT 08/M04 A3026 RMK A01 T00811035  RH  044%=      5-min Rain = 0
KTUR 192200Z 33011G16KT 08/M03 A3026 RMK A01 T00821034  RH  044%=      5-min Rain = 0
KTUR 192205Z 33011G17KT 08/M03 A3026 RMK A01 T00831034  RH  044%=      5-min Rain = 0
KTUR 192210Z 32011KT 08/M03 A3026 RMK A01 T00841033  RH  044%=      5-min Rain = 0
KTUR 192215Z 32013G18KT 08/M03 A3026 RMK A01 T00841034  RH  044%=      5-min Rain = 0
KTUR 192220Z 31011KT 08/M03 A3026 RMK A01 T00821034  RH  044%=      5-min Rain = 0
KTUR 192225Z 33014KT 08/M03 A3026 RMK A01 T00841034  RH  044%=      5-min Rain = 0
KTUR 192230Z 33011G16KT 08/M03 A3026 RMK A01 T00831034  RH  044%=      5-min Rain = 0
KTUR 192235Z 32011KT 08/M03 A3026 RMK A01 T00841033  RH  044%=      5-min Rain = 0
KTUR 192240Z 32012KT 08/M03 A3026 RMK A01 T00841033  RH  044%=      5-min Rain = 0
KTUR 192245Z 32010KT 08/M03 A3026 RMK A01 T00831032  RH  045%=      5-min Rain = 0
KTUR 192250Z 32011KT 08/M03 A3027 RMK A01 T00831032  RH  044%=      5-min Rain = 0
KTUR 192255Z 33010KT 08/M03 A3027 RMK A01 T00821033  RH  045%=      5-min Rain = 0
KTUR 192300Z 32009KT 08/M03 A3027 RMK A01 T00821032  RH  045%=      5-min Rain = 0
KTUR 192305Z 33009KT 08/M03 A3027 RMK A01 T00821032  RH  045%=      5-min Rain = 0
KTUR 192310Z 33009KT 08/M03 A3026 RMK A01 T00801032  RH  045%=      5-min Rain = 0
KTUR 192315Z 34010KT 08/M03 A3026 RMK A01 T00781033  RH  046%=      5-min Rain = 0
KTUR 192320Z 33009KT 08/M03 A3027 RMK A01 T00771033  RH  046%=      5-min Rain = 0
KTUR 192325Z 34009KT 08/M03 A3027 RMK A01 T00761033  RH  046%=      5-min Rain = 0
KTUR 192330Z 34009KT 07/M03 A3027 RMK A01 T00741034  RH  047%=      5-min Rain = 0
KTUR 192335Z 34008KT 07/M03 A3027 RMK A01 T00721034  RH  048%=      5-min Rain = 0
KTUR 192340Z 34010KT 07/M03 A3027 RMK A01 T00701034  RH  048%=      5-min Rain = 0
KTUR 192345Z 34009KT 07/M03 A3027 RMK A01 T00671034  RH  049%=      5-min Rain = 0
KTUR 192350Z 34008KT 06/M03 A3027 RMK A01 T00631034  RH  050%=      5-min Rain = 0
KTUR 192355Z 34007KT 06/M03 A3027 RMK A01 T00601034  RH  051%=      5-min Rain = 0
KTUR 200000Z 35006KT 06/M04 A3027 RMK A01 T00561035  RH  052%=      5-min Rain = 0
KTUR 200005Z 34005KT 05/M04 A3027 RMK A01 T00531036  RH  053%=      5-min Rain = 0
KTUR 200010Z 35005KT 05/M04 A3027 RMK A01 T00491037  RH  054%=      5-min Rain = 0
KTUR 200015Z 36005KT 04/M04 A3027 RMK A01 T00441038  RH  056%=      5-min Rain = 0
KTUR 200020Z 35005KT 04/M04 A3027 RMK A01 T00441037  RH  056%=      5-min Rain = 0
KTUR 200025Z 34005KT 05/M04 A3027 RMK A01 T00451036  RH  056%=      5-min Rain = 0
KTUR 200030Z 34004KT 05/M04 A3027 RMK A01 T00471036  RH  056%=      5-min Rain = 0
KTUR 200035Z 34004KT 05/M04 A3028 RMK A01 T00461036  RH  056%=      5-min Rain = 0
KTUR 200040Z 35005KT 04/M04 A3027 RMK A01 T00431037  RH  056%=      5-min Rain = 0
KTUR 200045Z 35005KT 04/M04 A3027 RMK A01 T00401037  RH  058%=      5-min Rain = 0
KTUR 200050Z 35006KT 04/M04 A3027 RMK A01 T00371037  RH  059%=      5-min Rain = 0
KTUR 200055Z 34006KT 04/M04 A3028 RMK A01 T00351038  RH  059%=      5-min Rain = 0
KTUR 200100Z 34006KT 04/M04 A3028 RMK A01 T00351038  RH  059%=      5-min Rain = 0
KTUR 200105Z 33007KT 03/M04 A3028 RMK A01 T00341038  RH  060%=      5-min Rain = 0
KTUR 200110Z 33007KT 03/M04 A3027 RMK A01 T00311038  RH  061%=      5-min Rain = 0
KTUR 200115Z 32006KT 03/M04 A3028 RMK A01 T00291038  RH  062%=      5-min Rain = 0
KTUR 200120Z 31004KT 03/M04 A3028 RMK A01 T00301038  RH  062%=      5-min Rain = 0
KTUR 200125Z 30003KT 03/M04 A3028 RMK A01 T00301038  RH  061%=      5-min Rain = 0
KTUR 200130Z 29002KT 03/M04 A3027 RMK A01 T00321038  RH  061%=      5-min Rain = 0
KTUR 200135Z 32002KT 03/M04 A3027 RMK A01 T00311038  RH  061%=      5-min Rain = 0
KTUR 200140Z 32002KT 03/M04 A3027 RMK A01 T00311038  RH  061%=      5-min Rain = 0
KTUR 200145Z 34002KT 03/M04 A3026 RMK A01 T00321038  RH  061%=      5-min Rain = 0
KTUR 200150Z 35002KT 03/M04 A3026 RMK A01 T00331037  RH  061%=      5-min Rain = 0
KTUR 200155Z 36002KT 04/M04 A3026 RMK A01 T00361036  RH  060%=      5-min Rain = 0
KTUR 200200Z 02003KT 04/M04 A3026 RMK A01 T00381036  RH  059%=      5-min Rain = 0
KTUR 200205Z 03003KT 04/M04 A3026 RMK A01 T00381037  RH  059%=      5-min Rain = 0
KTUR 200210Z 03004KT 04/M04 A3026 RMK A01 T00361037  RH  059%=      5-min Rain = 0
KTUR 200215Z 03004KT 04/M04 A3026 RMK A01 T00351037  RH  060%=      5-min Rain = 0
KTUR 200220Z 03004KT 04/M04 A3027 RMK A01 T00351036  RH  060%=      5-min Rain = 0
KTUR 200225Z 03005KT 03/M04 A3027 RMK A01 T00341037  RH  060%=      5-min Rain = 0
KTUR 200230Z 03007KT 03/M04 A3027 RMK A01 T00261039  RH  063%=      5-min Rain = 0
KTUR 200235Z 03007KT 01/M04 A3028 RMK A01 T00121041  RH  068%=      5-min Rain = 0
KTUR 200240Z 04004KT 01/M04 A3028 RMK A01 T00061041  RH  071%=      5-min Rain = 0
KTUR 200245Z 05004KT 01/M04 A3028 RMK A01 T00121040  RH  069%=      5-min Rain = 0
KTUR 200250Z 15002KT 01/M04 A3029 RMK A01 T00131041  RH  068%=      5-min Rain = 0
KTUR 200255Z 15002KT 01/M04 A3029 RMK A01 T00071041  RH  071%=      5-min Rain = 0
KTUR 200300Z 15002KT 01/M04 A3029 RMK A01 T00061040  RH  072%=      5-min Rain = 0
KTUR 200305Z 13001KT 01/M04 A3029 RMK A01 T00091040  RH  071%=      5-min Rain = 0
KTUR 200310Z 11003KT 01/M04 A3028 RMK A01 T00131039  RH  069%=      5-min Rain = 0
KTUR 200315Z 12002KT 01/M04 A3028 RMK A01 T00141040  RH  068%=      5-min Rain = 0
KTUR 200320Z 17002KT 01/M04 A3029 RMK A01 T00101041  RH  069%=      5-min Rain = 0
KTUR 200325Z 21003KT 01/M04 A3029 RMK A01 T00061041  RH  072%=      5-min Rain = 0
KTUR 200330Z 20002KT 00/M04 A3029 RMK A01 T00041041  RH  072%=      5-min Rain = 0
KTUR 200335Z 18003KT 00/M04 A3029 RMK A01 T00031043  RH  072%=      5-min Rain = 0
KTUR 200340Z 17004KT 00/M04 A3029 RMK A01 T00021042  RH  073%=      5-min Rain = 0
KTUR 200345Z 17006KT 00/M04 A3029 RMK A01 T00021043  RH  073%=      5-min Rain = 0
KTUR 200350Z 15006KT M00/M04 A3029 RMK A01 T10011043  RH  074%=      5-min Rain = 0
KTUR 200355Z 17006KT 00/M04 A3029 RMK A01 T00011042  RH  074%=      5-min Rain = 0
KTUR 200400Z 14008KT M00/M04 A3029 RMK A01 T10011042  RH  075%=      5-min Rain = 0
KTUR 200405Z 14007KT 01/M05 A3029 RMK A01 T00051046  RH  070%=      5-min Rain = 0
KTUR 200410Z 13006KT 00/M05 A3029 RMK A01 T00041049  RH  068%=      5-min Rain = 0
KTUR 200415Z 14006KT 00/05 A303 RMK A01 T00-00-51  RH  069%=      5-min Rain = 0
KTUR 200420Z 14006KT M00/M05 A3029 RMK A01 T10021053  RH  069%=      5-min Rain = 0
KTUR 200425Z 14006KT M00/M05 A3029 RMK A01 T10021054  RH  069%=      5-min Rain = 0
KTUR 200430Z 14007KT M00/M05 A3028 RMK A01 T10031052  RH  071%=      5-min Rain = 0
KTUR 200435Z 14007KT M00/M05 A3028 RMK A01 T10031050  RH  072%=      5-min Rain = 0
KTUR 200440Z 14007KT M01/M05 A3028 RMK A01 T10051051  RH  072%=      5-min Rain = 0
KTUR 200445Z 14007KT M00/M05 A3028 RMK A01 T10041054  RH  070%=      5-min Rain = 0
KTUR 200450Z 14007KT M00/M06 A3028 RMK A01 T10041055  RH  069%=      5-min Rain = 0
KTUR 200455Z 13007KT M01/M06 A3029 RMK A01 T10051057  RH  069%=      5-min Rain = 0
KTUR 200500Z 14006KT M01/M06 A3029 RMK A01 T10081056  RH  070%=      5-min Rain = 0
KTUR 200505Z 12006KT M01/M06 A3029 RMK A01 T10091058  RH  070%=      5-min Rain = 0
KTUR 200510Z 12006KT M01/M06 A3029 RMK A01 T10111058  RH  071%=      5-min Rain = 0
KTUR 200515Z 12006KT M01/M06 A303 RMK A01 T10121058  RH  072%=      5-min Rain = 0
KTUR 200520Z 12006KT M01/M06 A3029 RMK A01 T10131059  RH  071%=      5-min Rain = 0
KTUR 200525Z 13006KT M01/M06 A3029 RMK A01 T10121060  RH  070%=      5-min Rain = 0
KTUR 200530Z 14006KT M01/M06 A303 RMK A01 T10141059  RH  072%=      5-min Rain = 0
KTUR 200535Z 15005KT M01/M06 A3031 RMK A01 T10121058  RH  072%=      5-min Rain = 0
KTUR 200540Z 15005KT M01/M06 A3031 RMK A01 T10121058  RH  072%=      5-min Rain = 0
KTUR 200545Z 14006KT M01/M06 A3031 RMK A01 T10141061  RH  071%=      5-min Rain = 0
KTUR 200550Z 12006KT M01/M06 A3031 RMK A01 T10141063  RH  070%=      5-min Rain = 0
KTUR 200555Z 12006KT M02/M06 A3031 RMK A01 T10161064  RH  070%=      5-min Rain = 0

Page generated in 0.0405 seconds.